createdAt,value
2018-01-12T00:00:25.686Z,2.60
2018-01-12T00:02:53.316Z,2.60
2018-01-12T00:05:21.668Z,2.60
2018-01-12T00:07:50.758Z,2.60
2018-01-12T00:10:18.376Z,2.60
2018-01-12T00:12:45.980Z,2.60
2018-01-12T00:15:13.574Z,2.50
2018-01-12T00:17:41.164Z,2.50
2018-01-12T00:20:08.803Z,2.50
2018-01-12T00:22:36.402Z,2.50
2018-01-12T00:25:03.987Z,2.50
2018-01-12T00:27:31.610Z,2.40
2018-01-12T00:29:59.985Z,2.40
2018-01-12T00:32:28.383Z,2.50
2018-01-12T00:34:56.743Z,2.40
2018-01-12T00:37:25.109Z,2.40
2018-01-12T00:39:52.724Z,2.40
2018-01-12T00:42:21.080Z,2.40
2018-01-12T00:44:48.687Z,2.40
2018-01-12T00:47:16.295Z,2.40
2018-01-12T00:49:43.924Z,2.40
2018-01-12T00:52:11.521Z,2.40
2018-01-12T00:54:39.122Z,2.30
2018-01-12T00:57:07.515Z,2.30
2018-01-12T00:59:35.883Z,2.30
2018-01-12T01:02:04.288Z,2.30
2018-01-12T01:04:31.888Z,2.30
2018-01-12T01:06:59.590Z,2.30
2018-01-12T01:09:27.211Z,2.20
2018-01-12T01:11:54.853Z,2.20
2018-01-12T01:14:22.768Z,2.20
2018-01-12T01:16:50.368Z,2.20
2018-01-12T01:19:19.071Z,2.20
2018-01-12T01:21:46.690Z,2.20
2018-01-12T01:24:14.278Z,2.20
2018-01-12T01:26:42.662Z,2.20
2018-01-12T01:29:11.018Z,2.10
2018-01-12T01:31:38.638Z,2.10
2018-01-12T01:34:07.004Z,2.10
2018-01-12T01:36:35.410Z,2.10
2018-01-12T01:39:03.007Z,2.10
2018-01-12T01:41:30.611Z,2.10
2018-01-12T01:43:58.225Z,2.10
2018-01-12T01:46:25.810Z,2.20
2018-01-12T01:48:53.430Z,2.20
2018-01-12T01:51:21.804Z,2.20
2018-01-12T01:53:50.165Z,2.20
2018-01-12T01:56:18.553Z,2.20
2018-01-12T01:58:47.656Z,2.20
2018-01-12T02:01:15.275Z,2.20
2018-01-12T02:03:42.875Z,2.20
2018-01-12T02:06:10.561Z,2.20
2018-01-12T02:08:38.165Z,2.20
2018-01-12T02:11:05.755Z,2.20
2018-01-12T02:13:33.367Z,2.20
2018-01-12T02:16:01.726Z,2.20
2018-01-12T02:18:29.332Z,2.20
2018-01-12T02:20:56.952Z,2.20
2018-01-12T02:23:24.643Z,2.20
2018-01-12T02:25:53.005Z,2.30
2018-01-12T02:28:22.121Z,2.30
2018-01-12T02:30:50.531Z,2.30
2018-01-12T02:33:18.121Z,2.30
2018-01-12T02:35:46.089Z,2.30
2018-01-12T02:38:13.701Z,2.30
2018-01-12T02:40:42.802Z,2.30
2018-01-12T02:43:10.421Z,2.30
2018-01-12T02:45:38.024Z,2.30
2018-01-12T02:48:05.656Z,2.30
2018-01-12T02:50:33.249Z,2.30
2018-01-12T02:53:00.844Z,2.30
2018-01-12T02:55:29.223Z,2.30
2018-01-12T02:57:56.802Z,2.30
2018-01-12T03:00:25.303Z,2.30
2018-01-12T03:02:52.907Z,2.30
2018-01-12T03:05:20.524Z,2.30
2018-01-12T03:07:48.162Z,2.30
2018-01-12T03:10:16.054Z,2.30
2018-01-12T03:12:44.418Z,2.30
2018-01-12T03:15:12.010Z,2.30
2018-01-12T03:17:39.620Z,2.30
2018-01-12T03:20:07.214Z,2.40
2018-01-12T03:22:34.824Z,2.40
2018-01-12T03:25:02.568Z,2.40
2018-01-12T03:27:31.057Z,2.30
2018-01-12T03:29:59.411Z,2.40
2018-01-12T03:32:27.004Z,2.40
2018-01-12T03:34:55.377Z,2.40
2018-01-12T03:37:23.723Z,2.40
2018-01-12T03:39:51.318Z,2.30
2018-01-12T03:42:19.683Z,2.40
2018-01-12T03:44:48.072Z,2.40
2018-01-12T03:47:15.681Z,2.30
2018-01-12T03:49:43.279Z,2.40
2018-01-12T03:52:10.907Z,2.40
2018-01-12T03:54:38.491Z,2.40
2018-01-12T03:57:06.123Z,2.40
2018-01-12T03:59:34.631Z,2.30
2018-01-12T04:02:02.245Z,2.30
2018-01-12T04:04:29.839Z,2.30
2018-01-12T04:06:58.230Z,2.30
2018-01-12T04:09:26.583Z,2.30
2018-01-12T04:11:55.830Z,2.30
2018-01-12T04:14:23.447Z,2.30
2018-01-12T04:16:51.039Z,2.30
2018-01-12T04:19:19.421Z,2.40
2018-01-12T04:21:47.784Z,2.30
2018-01-12T04:24:15.491Z,2.30
2018-01-12T04:26:43.117Z,2.30
2018-01-12T04:29:12.219Z,2.30
2018-01-12T04:31:40.142Z,2.30
2018-01-12T04:34:07.749Z,2.40
2018-01-12T04:36:36.895Z,2.40
2018-01-12T04:39:04.503Z,2.40
2018-01-12T04:41:32.093Z,2.40
2018-01-12T04:44:01.222Z,2.30
2018-01-12T04:46:28.810Z,2.30
2018-01-12T04:48:56.416Z,2.30
2018-01-12T04:51:25.532Z,2.30
2018-01-12T04:53:53.886Z,2.30
2018-01-12T04:56:21.511Z,2.30
2018-01-12T04:58:49.164Z,2.30
2018-01-12T05:01:16.753Z,2.30
2018-01-12T05:03:44.421Z,2.30
2018-01-12T05:06:12.074Z,2.30
2018-01-12T05:08:40.021Z,2.30
2018-01-12T05:11:08.405Z,2.30
2018-01-12T05:13:36.809Z,2.30
2018-01-12T05:16:04.441Z,2.30
2018-01-12T05:18:32.033Z,2.30
2018-01-12T05:21:00.434Z,2.30
2018-01-12T05:23:28.104Z,2.30
2018-01-12T05:25:55.714Z,2.30
2018-01-12T05:28:24.087Z,2.30
2018-01-12T05:30:52.590Z,2.30
2018-01-12T05:33:20.314Z,2.30
2018-01-12T05:35:48.040Z,2.30
2018-01-12T05:38:16.420Z,2.30
2018-01-12T05:40:44.790Z,2.30
2018-01-12T05:43:14.246Z,2.40
2018-01-12T05:45:41.845Z,2.40
2018-01-12T05:48:09.487Z,2.40
2018-01-12T05:50:37.109Z,2.40
2018-01-12T05:53:05.466Z,2.30
2018-01-12T05:55:33.097Z,2.30
2018-01-12T05:58:00.715Z,2.40
2018-01-12T06:00:29.118Z,2.50
2018-01-12T06:06:19.312Z,2.40
2018-01-12T06:08:47.671Z,2.30
2018-01-12T06:11:16.031Z,2.30
2018-01-12T06:13:43.728Z,2.30
2018-01-12T06:16:12.093Z,2.40
2018-01-12T06:18:40.509Z,2.40
2018-01-12T06:21:08.131Z,2.40
2018-01-12T06:23:35.776Z,2.30
2018-01-12T06:26:03.399Z,2.30
2018-01-12T06:28:31.758Z,2.40
2018-01-12T06:30:59.795Z,2.30
2018-01-12T06:33:27.424Z,2.30
2018-01-12T06:35:55.806Z,2.20
2018-01-12T06:38:24.184Z,2.20
2018-01-12T06:40:52.595Z,2.20
2018-01-12T06:43:20.222Z,2.20
2018-01-12T06:45:47.822Z,2.20
2018-01-12T06:48:15.424Z,2.20
2018-01-12T06:50:43.030Z,2.20
2018-01-12T06:53:11.398Z,2.30
2018-01-12T06:55:39.048Z,2.20
2018-01-12T06:58:06.651Z,2.20
2018-01-12T07:00:35.018Z,2.30
2018-01-12T07:03:02.640Z,2.20
2018-01-12T07:05:30.229Z,2.30
2018-01-12T07:07:57.840Z,2.20
2018-01-12T07:10:25.620Z,2.20
2018-01-12T07:12:53.242Z,2.10
2018-01-12T07:15:20.977Z,2.10
2018-01-12T07:17:48.629Z,2.10
2018-01-12T07:20:28.148Z,2.10
2018-01-12T07:23:08.485Z,2.10
2018-01-12T07:25:36.862Z,2.10
2018-01-12T07:28:05.226Z,2.10
2018-01-12T07:30:33.067Z,2.10
2018-01-12T07:33:00.655Z,2.10
2018-01-12T07:35:28.261Z,2.00
2018-01-12T07:37:56.767Z,2.10
2018-01-12T07:40:24.393Z,2.00
2018-01-12T07:42:51.997Z,2.10
2018-01-12T07:45:19.616Z,2.10
2018-01-12T07:47:47.983Z,2.10
2018-01-12T07:50:15.588Z,2.10
2018-01-12T07:52:49.494Z,2.20
2018-01-12T07:55:17.086Z,2.20
2018-01-12T07:57:44.911Z,2.20
2018-01-12T08:00:13.272Z,2.20
2018-01-12T08:02:46.552Z,2.20
2018-01-12T08:05:14.267Z,2.30
2018-01-12T08:07:42.223Z,2.30
2018-01-12T08:10:09.826Z,2.30
2018-01-12T08:12:38.195Z,2.30
2018-01-12T08:15:06.608Z,2.40
2018-01-12T08:17:34.310Z,2.40
2018-01-12T08:20:01.936Z,2.40
2018-01-12T08:22:29.544Z,2.50
2018-01-12T08:24:57.158Z,2.50
2018-01-12T08:27:25.534Z,2.50
2018-01-12T08:29:53.894Z,2.50
2018-01-12T08:32:22.311Z,2.60
2018-01-12T08:34:50.666Z,2.60
2018-01-12T08:37:18.427Z,2.60
2018-01-12T08:39:46.017Z,2.70
2018-01-12T08:42:14.413Z,2.70
2018-01-12T08:44:42.795Z,2.80
2018-01-12T08:47:11.153Z,2.80
2018-01-12T08:49:38.777Z,2.80
2018-01-12T08:52:06.361Z,2.80
2018-01-12T08:54:34.132Z,2.80
2018-01-12T08:57:01.743Z,2.80
2018-01-12T08:59:30.126Z,2.90
2018-01-12T09:01:57.727Z,2.90
2018-01-12T09:04:25.685Z,2.90
2018-01-12T09:06:53.301Z,2.90
2018-01-12T09:09:20.979Z,2.90
2018-01-12T09:11:48.600Z,3.00
2018-01-12T09:14:28.215Z,3.10
2018-01-12T09:16:55.823Z,3.20
2018-01-12T09:19:29.264Z,3.20
2018-01-12T09:21:56.842Z,3.20
2018-01-12T09:24:24.450Z,3.30
2018-01-12T09:26:52.070Z,3.30
2018-01-12T09:29:19.663Z,3.30
2018-01-12T09:31:51.247Z,3.30
2018-01-12T09:34:30.490Z,3.30
2018-01-12T09:36:58.410Z,3.20
2018-01-12T09:39:37.782Z,3.30
2018-01-12T09:42:05.408Z,3.30
2018-01-12T09:44:33.002Z,3.30
2018-01-12T09:47:12.615Z,3.30
2018-01-12T09:49:47.035Z,3.20
2018-01-12T09:52:14.732Z,3.20
2018-01-12T09:54:42.325Z,3.10
2018-01-12T09:57:09.912Z,3.20
2018-01-12T09:59:44.223Z,3.20
2018-01-12T10:02:12.579Z,3.20
2018-01-12T10:04:40.250Z,3.10
2018-01-12T10:07:16.495Z,3.20
2018-01-12T10:09:49.030Z,3.20
2018-01-12T10:12:16.826Z,3.30
2018-01-12T10:14:44.437Z,3.30
2018-01-12T10:17:12.073Z,3.30
2018-01-12T10:20:02.208Z,3.30
2018-01-12T10:22:30.091Z,3.40
2018-01-12T10:24:57.686Z,3.40
2018-01-12T10:27:25.279Z,3.40
2018-01-12T10:29:57.485Z,3.40
2018-01-12T10:32:26.621Z,3.40
2018-01-12T10:35:06.909Z,3.40
2018-01-12T10:37:35.263Z,3.40
2018-01-12T10:40:02.912Z,3.40
2018-01-12T10:42:30.500Z,3.40
2018-01-12T10:44:58.104Z,3.30
2018-01-12T10:47:27.299Z,3.50
2018-01-12T10:49:57.272Z,3.50
2018-01-12T10:52:45.519Z,3.50
2018-01-12T10:55:13.115Z,3.50
2018-01-12T10:57:41.539Z,3.60
2018-01-12T11:03:04.260Z,3.60
2018-01-12T11:05:32.738Z,3.60
2018-01-12T11:08:00.346Z,3.60
2018-01-12T11:10:27.972Z,3.60
2018-01-12T11:12:55.591Z,3.60
2018-01-12T11:15:23.215Z,3.60
2018-01-12T11:17:51.600Z,3.70
2018-01-12T11:20:19.390Z,3.70
2018-01-12T11:22:47.069Z,3.80
2018-01-12T11:25:14.668Z,3.80
2018-01-12T11:27:42.293Z,3.90
2018-01-12T11:30:09.890Z,3.80
2018-01-12T11:32:37.505Z,3.80
2018-01-12T11:35:05.878Z,3.90
2018-01-12T11:37:34.244Z,4.00
2018-01-12T11:40:01.950Z,4.00
2018-01-12T11:42:29.586Z,4.00
2018-01-12T11:44:57.226Z,4.00
2018-01-12T11:47:24.821Z,4.00
2018-01-12T11:49:53.205Z,4.00
2018-01-12T11:52:21.578Z,3.90
2018-01-12T11:54:49.179Z,3.90
2018-01-12T11:57:16.851Z,4.00
2018-01-12T11:59:44.509Z,4.00
2018-01-12T12:02:12.188Z,4.00
2018-01-12T12:04:39.816Z,3.90
2018-01-12T12:07:07.411Z,4.00
2018-01-12T12:09:35.037Z,4.00
2018-01-12T12:12:02.655Z,3.90
2018-01-12T12:14:30.374Z,3.90
2018-01-12T12:16:57.969Z,3.80
2018-01-12T12:19:25.929Z,3.80
2018-01-12T12:21:54.303Z,3.80
2018-01-12T12:24:21.998Z,3.80
2018-01-12T12:26:49.650Z,3.80
2018-01-12T12:29:18.027Z,3.70
2018-01-12T12:31:46.408Z,3.70
2018-01-12T12:34:14.782Z,3.70
2018-01-12T12:36:42.412Z,3.70
2018-01-12T12:39:10.042Z,3.70
2018-01-12T12:41:37.632Z,3.80
2018-01-12T12:44:05.371Z,3.80
2018-01-12T12:46:32.958Z,3.80
2018-01-12T12:49:00.593Z,3.80
2018-01-12T12:51:28.961Z,3.90
2018-01-12T12:53:56.588Z,3.80
2018-01-12T12:56:24.182Z,3.80
2018-01-12T12:58:52.550Z,3.80
2018-01-12T13:01:20.190Z,3.80
2018-01-12T13:03:47.796Z,3.80
2018-01-12T13:06:17.078Z,3.90
2018-01-12T13:08:44.690Z,3.90
2018-01-12T13:11:13.064Z,4.00
2018-01-12T13:13:40.698Z,4.00
2018-01-12T13:16:08.300Z,4.00
2018-01-12T13:18:36.699Z,3.90
2018-01-12T13:21:04.311Z,3.90
2018-01-12T13:23:31.944Z,3.90
2018-01-12T13:25:59.532Z,3.80
2018-01-12T13:28:27.160Z,3.80
2018-01-12T13:30:55.545Z,3.70
2018-01-12T13:33:23.163Z,3.70
2018-01-12T13:35:50.808Z,3.70
2018-01-12T13:38:18.414Z,3.60
2018-01-12T13:40:46.068Z,3.60
2018-01-12T13:43:13.679Z,3.60
2018-01-12T13:45:41.274Z,3.60
2018-01-12T13:48:08.885Z,3.60
2018-01-12T13:50:37.243Z,3.60
2018-01-12T13:53:05.904Z,3.60
2018-01-12T13:55:33.501Z,3.60
2018-01-12T13:58:01.133Z,3.60
2018-01-12T14:00:28.747Z,3.70
2018-01-12T14:02:56.377Z,3.70
2018-01-12T14:05:24.007Z,3.70
2018-01-12T14:07:51.633Z,3.70
2018-01-12T14:10:20.015Z,3.60
2018-01-12T14:12:47.637Z,3.60
2018-01-12T14:15:15.231Z,3.60
2018-01-12T14:17:42.867Z,3.60
2018-01-12T14:20:10.501Z,3.60
2018-01-12T14:22:38.929Z,3.50
2018-01-12T14:25:06.531Z,3.50
2018-01-12T14:27:34.140Z,3.50
2018-01-12T14:30:01.779Z,3.40
2018-01-12T14:32:29.399Z,3.40
2018-01-12T14:34:57.024Z,3.40
2018-01-12T14:37:25.535Z,3.40
2018-01-12T14:39:53.155Z,3.30
2018-01-12T14:42:20.820Z,3.40
2018-01-12T14:44:48.422Z,3.40
2018-01-12T14:47:16.068Z,3.30
2018-01-12T14:49:44.454Z,3.30
2018-01-12T14:52:12.828Z,3.30
2018-01-12T14:54:41.222Z,3.30
2018-01-12T14:57:09.587Z,3.30
2018-01-12T14:59:38.071Z,3.20
2018-01-12T15:02:05.670Z,3.30
2018-01-12T15:04:33.316Z,3.20
2018-01-12T15:07:01.686Z,3.10
2018-01-12T15:09:29.308Z,3.20
2018-01-12T15:11:56.980Z,3.20
2018-01-12T15:14:24.588Z,3.20
2018-01-12T15:16:52.207Z,3.20
2018-01-12T15:19:19.823Z,3.10
2018-01-12T15:21:47.476Z,3.10
2018-01-12T15:24:15.072Z,3.00
2018-01-12T15:26:42.692Z,3.00
2018-01-12T15:29:10.304Z,3.00
2018-01-12T15:31:38.674Z,3.00
2018-01-12T15:34:07.267Z,3.00
2018-01-12T15:36:35.652Z,3.00
2018-01-12T15:39:04.004Z,2.90
2018-01-12T15:41:31.621Z,2.90
2018-01-12T15:43:59.249Z,2.90
2018-01-12T15:46:27.143Z,2.90
2018-01-12T15:48:55.525Z,2.80
2018-01-12T15:51:23.927Z,2.80
2018-01-12T15:53:51.527Z,2.80
2018-01-12T15:56:19.118Z,2.80
2018-01-12T15:58:47.535Z,2.80
2018-01-12T16:01:15.141Z,2.80
2018-01-12T16:03:42.775Z,2.80
2018-01-12T16:06:10.415Z,2.80
2018-01-12T16:08:38.793Z,2.70
2018-01-12T16:11:06.395Z,2.70
2018-01-12T16:13:33.998Z,2.80
2018-01-12T16:16:01.663Z,2.80
2018-01-12T16:18:29.285Z,2.70
2018-01-12T16:20:56.875Z,2.70
2018-01-12T16:23:24.526Z,2.70
2018-01-12T16:25:52.123Z,2.70
2018-01-12T16:28:19.803Z,2.60
2018-01-12T16:30:48.215Z,2.60
2018-01-12T16:33:16.590Z,2.60
2018-01-12T16:35:45.011Z,2.60
2018-01-12T16:38:13.487Z,2.60
2018-01-12T16:40:41.135Z,2.50
2018-01-12T16:43:09.564Z,2.60
2018-01-12T16:45:38.064Z,2.60
2018-01-12T16:48:06.590Z,2.60
2018-01-12T16:50:34.996Z,2.60
2018-01-12T16:53:02.658Z,2.50
2018-01-12T16:55:30.300Z,2.50
2018-01-12T16:57:58.918Z,2.50
2018-01-12T17:00:26.534Z,2.50
2018-01-12T17:02:54.156Z,2.50
2018-01-12T17:05:21.794Z,2.50
2018-01-12T17:07:50.176Z,2.50
2018-01-12T17:10:18.584Z,2.50
2018-01-12T17:12:46.208Z,2.50
2018-01-12T17:15:13.857Z,2.50
2018-01-12T17:17:41.490Z,2.50
2018-01-12T17:20:09.183Z,2.50
2018-01-12T17:22:36.821Z,2.50
2018-01-12T17:25:04.453Z,2.50
2018-01-12T17:27:32.834Z,2.50
2018-01-12T17:30:01.222Z,2.50
2018-01-12T17:32:29.593Z,2.50
2018-01-12T17:34:57.229Z,2.50
2018-01-12T17:37:24.835Z,2.50
2018-01-12T17:39:53.400Z,2.50
2018-01-12T17:44:52.502Z,2.50
2018-01-12T17:47:20.160Z,2.50
2018-01-12T17:49:47.800Z,2.50
2018-01-12T17:52:15.544Z,2.50
2018-01-12T17:54:43.927Z,2.60
2018-01-12T17:57:12.325Z,2.60
2018-01-12T17:59:40.067Z,2.60
2018-01-12T18:02:07.693Z,2.60
2018-01-12T18:04:35.381Z,2.60
2018-01-12T18:07:02.993Z,2.60
2018-01-12T18:09:31.397Z,2.60
2018-01-12T18:11:59.143Z,2.60
2018-01-12T18:14:27.559Z,2.60
2018-01-12T18:16:55.188Z,2.60
2018-01-12T18:19:23.638Z,2.60
2018-01-12T18:21:51.515Z,2.60
2018-01-12T18:24:19.301Z,2.60
2018-01-12T18:26:47.882Z,2.50
2018-01-12T18:29:15.562Z,2.50
2018-01-12T18:31:44.006Z,2.50
2018-01-12T18:34:11.635Z,2.50
2018-01-12T18:36:39.284Z,2.60
2018-01-12T18:39:07.687Z,2.60
2018-01-12T18:41:35.300Z,2.60
2018-01-12T18:44:02.928Z,2.60
2018-01-12T18:46:30.575Z,2.60
2018-01-12T18:48:58.932Z,2.60
2018-01-12T18:51:26.577Z,2.60
2018-01-12T18:53:54.250Z,2.60
2018-01-12T18:56:22.246Z,2.60
2018-01-12T18:58:49.897Z,2.60
2018-01-12T19:01:17.675Z,2.50
2018-01-12T19:03:46.154Z,2.50
2018-01-12T19:06:13.869Z,2.50
2018-01-12T19:08:41.605Z,2.50
2018-01-12T19:11:10.087Z,2.50
2018-01-12T19:13:38.683Z,2.50
2018-01-12T19:16:07.173Z,2.50
2018-01-12T19:18:35.575Z,2.50
2018-01-12T19:21:03.550Z,2.50
2018-01-12T19:23:31.159Z,2.50
2018-01-12T19:25:58.820Z,2.50
2018-01-12T19:28:26.477Z,2.50
2018-01-12T19:30:54.265Z,2.50
2018-01-12T19:33:23.626Z,2.50
2018-01-12T19:35:51.307Z,2.50
2018-01-12T19:38:19.301Z,2.50
2018-01-12T19:40:47.950Z,2.50
2018-01-12T19:43:16.281Z,2.50
2018-01-12T19:45:45.026Z,2.60
2018-01-12T19:48:13.826Z,2.50
2018-01-12T19:50:41.595Z,2.50
2018-01-12T19:53:10.244Z,2.50
2018-01-12T19:55:37.900Z,2.50
2018-01-12T19:58:05.614Z,2.60
2018-01-12T20:00:33.284Z,2.60
2018-01-12T20:03:00.974Z,2.60
2018-01-12T20:05:28.634Z,2.50
2018-01-12T20:07:56.362Z,2.50
2018-01-12T20:10:24.701Z,2.50
2018-01-12T20:12:52.393Z,2.50
2018-01-12T20:15:20.084Z,2.50
2018-01-12T20:17:48.530Z,2.50
2018-01-12T20:22:38.578Z,2.50
2018-01-12T20:25:07.133Z,2.60
2018-01-12T20:27:35.690Z,2.50
2018-01-12T20:30:03.374Z,2.50
2018-01-12T20:32:31.120Z,2.50
2018-01-12T20:34:59.409Z,2.50
2018-01-12T20:37:27.117Z,2.50
2018-01-12T20:39:54.777Z,2.50
2018-01-12T20:42:22.535Z,2.50
2018-01-12T20:44:50.269Z,2.50
2018-01-12T20:47:17.961Z,2.50
2018-01-12T20:49:45.636Z,2.50
2018-01-12T20:52:13.365Z,2.50
2018-01-12T20:54:41.074Z,2.50
2018-01-12T20:57:10.885Z,2.50
2018-01-12T20:59:38.574Z,2.50
2018-01-12T21:02:07.095Z,2.50
2018-01-12T21:04:34.807Z,2.50
2018-01-12T21:07:02.517Z,2.50
2018-01-12T21:09:30.946Z,2.50
2018-01-12T21:11:59.443Z,2.50
2018-01-12T21:14:27.127Z,2.50
2018-01-12T21:16:54.798Z,2.50
2018-01-12T21:19:24.155Z,2.50
2018-01-12T21:21:51.918Z,2.50
2018-01-12T21:24:19.609Z,2.50
2018-01-12T21:26:47.552Z,2.50
2018-01-12T21:29:15.247Z,2.50
2018-01-12T21:31:42.968Z,2.60
2018-01-12T21:34:10.769Z,2.60
2018-01-12T21:36:38.494Z,2.60
2018-01-12T21:39:06.973Z,2.60
2018-01-12T21:41:34.686Z,2.50
2018-01-12T21:44:02.464Z,2.60
2018-01-12T21:46:30.893Z,2.60
2018-01-12T21:48:58.564Z,2.60
2018-01-12T21:51:26.266Z,2.60
2018-01-12T21:53:53.944Z,2.60
2018-01-12T21:56:21.613Z,2.60
2018-01-12T21:58:49.298Z,2.60
2018-01-12T22:01:17.009Z,2.60
2018-01-12T22:03:44.676Z,2.50
2018-01-12T22:06:13.066Z,2.60
2018-01-12T22:08:41.500Z,2.60
2018-01-12T22:11:09.134Z,2.60
2018-01-12T22:13:36.846Z,2.60
2018-01-12T22:16:04.503Z,2.60
2018-01-12T22:18:32.210Z,2.70
2018-01-12T22:21:00.648Z,2.70
2018-01-12T22:23:29.068Z,2.70
2018-01-12T22:25:58.245Z,2.60
2018-01-12T22:28:25.885Z,2.60
2018-01-12T22:30:53.561Z,2.60
2018-01-12T22:33:21.212Z,2.60
2018-01-12T22:35:48.907Z,2.50
2018-01-12T22:38:16.552Z,2.50
2018-01-12T22:40:44.183Z,2.40
2018-01-12T22:43:11.841Z,2.50
2018-01-12T22:45:39.461Z,2.60
2018-01-12T22:48:07.105Z,2.60
2018-01-12T22:50:35.507Z,2.60
2018-01-12T22:53:03.371Z,2.60
2018-01-12T22:55:30.997Z,2.60
2018-01-12T22:58:00.105Z,2.60
2018-01-12T23:00:28.533Z,2.60
2018-01-12T23:02:56.161Z,2.60
2018-01-12T23:05:24.575Z,2.60
2018-01-12T23:07:52.179Z,2.50
2018-01-12T23:10:19.939Z,2.60
2018-01-12T23:12:47.564Z,2.50
2018-01-12T23:15:15.182Z,2.50
2018-01-12T23:17:42.847Z,2.50
2018-01-12T23:20:10.466Z,2.40
2018-01-12T23:22:38.072Z,2.50
2018-01-12T23:25:05.698Z,2.50
2018-01-12T23:27:33.306Z,2.40
2018-01-12T23:30:00.962Z,2.50
2018-01-12T23:32:28.550Z,2.50
2018-01-12T23:34:56.154Z,2.50
2018-01-12T23:37:23.770Z,2.50
2018-01-12T23:39:51.354Z,2.50
2018-01-12T23:42:18.980Z,2.50
2018-01-12T23:44:46.594Z,2.50
2018-01-12T23:47:14.182Z,2.60
2018-01-12T23:49:41.810Z,2.60
2018-01-12T23:52:09.406Z,2.60
2018-01-12T23:54:37.787Z,2.50
2018-01-12T23:57:06.141Z,2.50
2018-01-12T23:59:35.273Z,2.50
